createdAt,value
2023-01-26T00:01:47.037Z,17.80
2023-01-26T00:04:15.002Z,20.23
2023-01-26T00:06:42.950Z,19.38
2023-01-26T00:09:14.389Z,19.17
2023-01-26T00:11:42.554Z,18.83
2023-01-26T00:14:11.763Z,17.45
2023-01-26T00:16:40.412Z,19.20
2023-01-26T00:19:08.345Z,19.60
2023-01-26T00:21:36.180Z,17.80
2023-01-26T00:24:04.967Z,18.90
2023-01-26T00:26:33.083Z,19.58
2023-01-26T00:29:04.016Z,19.75
2023-01-26T00:31:33.340Z,17.13
2023-01-26T00:34:01.237Z,20.10
2023-01-26T00:36:29.373Z,18.65
2023-01-26T00:38:57.714Z,19.67
2023-01-26T00:41:43.139Z,18.88
2023-01-26T00:44:11.048Z,18.02
2023-01-26T00:46:40.409Z,18.80
2023-01-26T00:49:08.495Z,18.73
2023-01-26T00:51:36.376Z,18.63
2023-01-26T00:54:05.420Z,18.58
2023-01-26T00:56:33.361Z,19.40
2023-01-26T00:59:01.240Z,18.13
2023-01-26T01:01:29.138Z,18.75
2023-01-26T01:03:58.347Z,18.40
2023-01-26T01:06:26.307Z,18.27
2023-01-26T01:08:54.299Z,19.75
2023-01-26T01:11:23.110Z,19.90
2023-01-26T01:13:52.460Z,19.42
2023-01-26T01:16:20.553Z,19.40
2023-01-26T01:18:48.528Z,18.55
2023-01-26T01:21:18.753Z,19.17
2023-01-26T01:23:47.409Z,20.60
2023-01-26T01:26:16.527Z,19.75
2023-01-26T01:28:45.477Z,18.20
2023-01-26T01:31:15.630Z,19.65
2023-01-26T01:33:43.640Z,19.67
2023-01-26T01:36:13.359Z,21.30
2023-01-26T01:38:43.439Z,19.40
2023-01-26T01:41:11.948Z,20.33
2023-01-26T01:43:40.120Z,20.30
2023-01-26T01:46:13.209Z,17.95
2023-01-26T01:48:48.737Z,17.73
2023-01-26T01:51:32.157Z,16.50
2023-01-26T01:54:04.467Z,17.30
2023-01-26T01:56:34.989Z,18.70
2023-01-26T01:59:05.142Z,21.10
2023-01-26T02:01:33.060Z,20.42
2023-01-26T02:04:02.890Z,18.90
2023-01-26T02:06:36.324Z,17.45
2023-01-26T02:09:06.860Z,17.52
2023-01-26T02:11:39.394Z,18.50
2023-01-26T02:14:10.671Z,18.23
2023-01-26T02:16:39.901Z,18.33
2023-01-26T02:19:21.119Z,18.10
2023-01-26T02:21:51.262Z,17.52
2023-01-26T02:24:26.314Z,18.13
2023-01-26T02:26:55.864Z,17.10
2023-01-26T02:29:24.322Z,16.20
2023-01-26T02:31:53.642Z,16.65
2023-01-26T02:34:25.112Z,17.00
2023-01-26T02:36:59.878Z,18.83
2023-01-26T02:39:42.226Z,17.70
2023-01-26T02:42:29.620Z,17.80
2023-01-26T02:44:57.783Z,17.30
2023-01-26T02:47:25.726Z,18.88
2023-01-26T02:49:52.837Z,16.98
2023-01-26T02:52:23.886Z,17.13
2023-01-26T02:55:17.514Z,18.25
2023-01-26T02:57:47.209Z,19.10
2023-01-26T03:00:17.628Z,19.05
2023-01-26T03:02:47.635Z,17.92
2023-01-26T03:05:15.864Z,20.98
2023-01-26T03:07:43.974Z,22.70
2023-01-26T03:10:13.971Z,25.25
2023-01-26T03:12:41.942Z,24.30
2023-01-26T03:15:30.253Z,24.15
2023-01-26T03:18:35.509Z,24.88
2023-01-26T03:21:22.505Z,23.73
2023-01-26T03:24:08.330Z,23.30
2023-01-26T03:26:54.338Z,25.15
2023-01-26T03:29:22.973Z,24.83
2023-01-26T03:31:53.875Z,23.73
2023-01-26T03:34:22.355Z,25.48
2023-01-26T03:36:50.533Z,23.83
2023-01-26T03:39:37.851Z,24.00
2023-01-26T03:42:24.418Z,22.80
2023-01-26T03:45:10.083Z,24.35
2023-01-26T03:47:59.255Z,24.40
2023-01-26T03:50:45.844Z,23.65
2023-01-26T03:53:33.338Z,23.98
2023-01-26T03:56:21.959Z,24.08
2023-01-26T03:58:54.316Z,23.58
2023-01-26T04:01:27.703Z,22.55
2023-01-26T04:04:17.394Z,22.50
2023-01-26T04:07:06.722Z,22.63
2023-01-26T04:09:36.950Z,22.20
2023-01-26T04:12:05.481Z,22.42
2023-01-26T04:14:54.476Z,23.88
2023-01-26T04:17:42.980Z,22.33
2023-01-26T04:20:30.972Z,21.52
2023-01-26T04:22:58.927Z,22.95
2023-01-26T04:25:26.895Z,21.77
2023-01-26T04:27:57.316Z,20.58
2023-01-26T04:30:25.414Z,20.13
2023-01-26T04:32:53.378Z,19.98
2023-01-26T04:35:22.859Z,19.02
2023-01-26T04:37:51.014Z,19.25
2023-01-26T04:40:19.314Z,19.83
2023-01-26T04:42:47.434Z,18.08
2023-01-26T04:45:15.428Z,19.77
2023-01-26T04:47:45.138Z,19.13
2023-01-26T04:50:13.964Z,20.92
2023-01-26T04:52:43.415Z,17.73
2023-01-26T04:55:11.729Z,18.42
2023-01-26T04:57:42.258Z,19.10
2023-01-26T05:00:14.017Z,19.02
2023-01-26T05:02:42.453Z,19.95
2023-01-26T05:05:11.063Z,20.23
2023-01-26T05:07:39.803Z,18.20
2023-01-26T05:10:12.601Z,19.75
2023-01-26T05:12:55.396Z,19.55
2023-01-26T05:15:35.532Z,19.23
2023-01-26T05:18:14.468Z,19.55
2023-01-26T05:20:57.956Z,17.67
2023-01-26T05:23:31.801Z,18.63
2023-01-26T05:26:19.510Z,17.42
2023-01-26T05:28:57.494Z,16.88
2023-01-26T05:31:25.467Z,16.38
2023-01-26T05:33:54.493Z,16.25
2023-01-26T05:36:24.709Z,16.55
2023-01-26T05:38:52.895Z,15.93
2023-01-26T05:41:26.981Z,16.52
2023-01-26T05:44:13.499Z,16.08
2023-01-26T05:46:48.954Z,16.30
2023-01-26T05:49:16.890Z,15.57
2023-01-26T05:51:44.930Z,14.30
2023-01-26T05:54:13.031Z,16.25
2023-01-26T05:56:42.558Z,14.93
2023-01-26T05:59:10.670Z,15.60
2023-01-26T06:01:39.302Z,15.57
2023-01-26T06:04:09.231Z,16.05
2023-01-26T06:06:44.219Z,15.32
2023-01-26T06:09:25.786Z,14.75
2023-01-26T06:12:17.260Z,15.45
2023-01-26T06:14:57.201Z,14.43
2023-01-26T06:17:31.402Z,16.08
2023-01-26T06:20:02.418Z,15.77
2023-01-26T06:22:32.374Z,14.88
2023-01-26T06:25:00.817Z,14.38
2023-01-26T06:27:30.277Z,14.63
2023-01-26T06:30:00.314Z,14.43
2023-01-26T06:32:29.432Z,15.05
2023-01-26T06:34:57.378Z,15.02
2023-01-26T06:37:26.593Z,15.15
2023-01-26T06:40:02.740Z,15.90
2023-01-26T06:42:32.034Z,14.23
2023-01-26T06:45:00.158Z,15.63
2023-01-26T06:47:28.098Z,12.70
2023-01-26T06:49:56.066Z,12.13
2023-01-26T06:52:28.313Z,12.90
2023-01-26T06:55:01.327Z,10.13
2023-01-26T06:57:54.930Z,10.93
2023-01-26T07:00:49.736Z,12.05
2023-01-26T07:03:27.959Z,11.77
2023-01-26T07:05:55.833Z,10.32
2023-01-26T07:08:23.710Z,11.05
2023-01-26T07:10:52.066Z,10.50
2023-01-26T07:13:21.531Z,11.43
2023-01-26T07:15:49.526Z,10.88
2023-01-26T07:18:17.534Z,10.52
2023-01-26T07:20:45.448Z,10.65
2023-01-26T07:23:13.336Z,11.13
2023-01-26T07:25:44.497Z,11.38
2023-01-26T07:28:13.612Z,11.30
2023-01-26T07:30:42.992Z,11.18
2023-01-26T07:33:11.087Z,11.40
2023-01-26T07:35:39.092Z,11.95
2023-01-26T07:38:07.500Z,11.45
2023-01-26T07:40:35.588Z,11.63
2023-01-26T07:43:03.593Z,10.95
2023-01-26T07:45:54.227Z,12.45
2023-01-26T07:48:23.783Z,12.35
2023-01-26T07:50:52.625Z,11.45
2023-01-26T07:53:21.315Z,12.30
2023-01-26T07:55:49.867Z,11.70
2023-01-26T07:58:19.063Z,13.35
2023-01-26T08:00:47.714Z,12.93
2023-01-26T08:03:17.047Z,13.45
2023-01-26T08:05:45.659Z,13.20
2023-01-26T08:08:13.759Z,11.52
2023-01-26T08:10:41.693Z,13.13
2023-01-26T08:13:09.579Z,10.75
2023-01-26T08:15:37.596Z,10.27
2023-01-26T08:18:05.999Z,12.70
2023-01-26T08:20:36.351Z,10.10
2023-01-26T08:23:04.251Z,10.52
2023-01-26T08:25:32.927Z,10.15
2023-01-26T08:28:00.845Z,12.25
2023-01-26T08:30:28.752Z,11.30
2023-01-26T08:32:56.652Z,10.80
2023-01-26T08:35:24.567Z,10.57
2023-01-26T08:37:53.872Z,11.77
2023-01-26T08:40:21.762Z,14.13
2023-01-26T08:42:49.690Z,12.30
2023-01-26T08:45:17.677Z,11.88
2023-01-26T08:47:46.054Z,12.27
2023-01-26T08:50:14.249Z,11.00
2023-01-26T08:52:42.347Z,10.57
2023-01-26T08:55:12.463Z,10.48
2023-01-26T08:57:40.361Z,10.40
2023-01-26T09:00:09.729Z,11.27
2023-01-26T09:02:37.930Z,11.02
2023-01-26T09:05:06.727Z,12.85
2023-01-26T09:07:34.615Z,12.18
2023-01-26T09:10:02.519Z,11.75
2023-01-26T09:12:33.847Z,12.48
2023-01-26T09:15:01.747Z,13.52
2023-01-26T09:17:29.776Z,14.18
2023-01-26T09:19:57.673Z,14.60
2023-01-26T09:22:25.653Z,14.38
2023-01-26T09:24:53.625Z,14.98
2023-01-26T09:27:21.503Z,17.15
2023-01-26T09:29:50.827Z,17.85
2023-01-26T09:32:18.988Z,20.52
2023-01-26T09:34:46.907Z,17.48
2023-01-26T09:37:14.838Z,17.10
2023-01-26T09:39:42.949Z,17.42
2023-01-26T09:42:32.114Z,16.17
2023-01-26T09:45:16.967Z,15.63
2023-01-26T09:48:00.025Z,13.88
2023-01-26T09:50:31.731Z,15.93
2023-01-26T09:53:03.755Z,15.68
2023-01-26T09:55:31.797Z,13.75
2023-01-26T09:58:03.975Z,14.77
2023-01-26T10:00:36.756Z,15.20
2023-01-26T10:03:19.833Z,13.30
2023-01-26T10:05:53.031Z,13.13
2023-01-26T10:08:43.030Z,11.25
2023-01-26T10:11:17.223Z,8.63
2023-01-26T10:13:51.424Z,10.48
2023-01-26T10:16:24.313Z,8.77
2023-01-26T10:18:57.418Z,8.93
2023-01-26T10:21:30.209Z,8.30
2023-01-26T10:24:01.592Z,8.80
2023-01-26T10:26:33.235Z,7.60
2023-01-26T10:29:02.295Z,7.10
2023-01-26T10:31:34.179Z,9.38
2023-01-26T10:34:11.113Z,7.22
2023-01-26T10:36:41.185Z,7.78
2023-01-26T10:39:10.039Z,8.43
2023-01-26T10:41:39.202Z,6.68
2023-01-26T10:44:24.526Z,6.30
2023-01-26T10:47:07.240Z,6.40
2023-01-26T10:49:35.255Z,10.77
2023-01-26T10:52:08.924Z,9.57
2023-01-26T10:54:39.593Z,6.40
2023-01-26T10:57:18.212Z,5.85
2023-01-26T10:59:52.942Z,8.10
2023-01-26T11:02:28.609Z,9.63
2023-01-26T11:05:05.724Z,4.65
2023-01-26T11:07:35.698Z,16.42
2023-01-26T11:10:20.356Z,7.25
2023-01-26T11:12:48.540Z,7.05
2023-01-26T11:15:22.018Z,6.10
2023-01-26T11:18:00.715Z,5.90
2023-01-26T11:20:45.372Z,5.40
2023-01-26T11:23:25.656Z,5.55
2023-01-26T11:26:22.057Z,4.57
2023-01-26T11:29:01.663Z,5.90
2023-01-26T11:31:41.380Z,5.65
2023-01-26T11:34:25.683Z,5.28
2023-01-26T11:37:01.072Z,5.35
2023-01-26T11:39:36.682Z,5.80
2023-01-26T11:42:20.083Z,5.38
2023-01-26T11:44:59.494Z,4.72
2023-01-26T11:47:49.094Z,5.35
2023-01-26T11:50:29.588Z,4.55
2023-01-26T11:53:31.840Z,4.45
2023-01-26T11:56:19.831Z,9.27
2023-01-26T11:58:52.608Z,4.57
2023-01-26T12:01:28.778Z,4.72
2023-01-26T12:03:57.639Z,5.32
2023-01-26T12:06:32.703Z,5.45
2023-01-26T12:09:04.229Z,6.28
2023-01-26T12:11:38.864Z,6.10
2023-01-26T12:14:21.862Z,5.80
2023-01-26T12:17:17.097Z,6.20
2023-01-26T12:19:57.218Z,6.13
2023-01-26T12:22:33.913Z,5.60
2023-01-26T12:25:19.555Z,6.28
2023-01-26T12:27:54.383Z,7.03
2023-01-26T12:30:36.275Z,7.38
2023-01-26T12:33:04.487Z,6.72
2023-01-26T12:36:02.807Z,7.95
2023-01-26T12:38:42.722Z,8.48
2023-01-26T12:41:17.027Z,8.27
2023-01-26T12:43:57.987Z,7.72
2023-01-26T12:46:29.655Z,7.55
2023-01-26T12:49:03.176Z,8.65
2023-01-26T12:51:36.111Z,7.10
2023-01-26T12:54:13.165Z,6.40
2023-01-26T12:56:45.207Z,5.65
2023-01-26T12:59:39.157Z,6.40
2023-01-26T13:02:21.509Z,7.63
2023-01-26T13:04:51.317Z,6.18
2023-01-26T13:07:32.176Z,5.25
2023-01-26T13:10:24.682Z,7.30
2023-01-26T13:12:55.504Z,7.85
2023-01-26T13:15:25.022Z,5.25
2023-01-26T13:17:58.230Z,5.63
2023-01-26T13:20:29.834Z,7.28
2023-01-26T13:22:58.347Z,6.45
2023-01-26T13:25:32.888Z,5.85
2023-01-26T13:28:02.691Z,5.40
2023-01-26T13:30:42.996Z,5.63
2023-01-26T13:33:16.433Z,5.70
2023-01-26T13:35:46.141Z,5.15
2023-01-26T13:38:25.664Z,4.80
2023-01-26T13:40:55.348Z,4.47
2023-01-26T13:43:32.044Z,5.30
2023-01-26T13:46:14.450Z,4.32
2023-01-26T13:48:45.352Z,4.80
2023-01-26T13:51:17.409Z,57.03
2023-01-26T13:53:49.872Z,18.77
2023-01-26T13:56:28.096Z,6.55
2023-01-26T13:59:08.383Z,7.00
2023-01-26T14:01:42.652Z,5.65
2023-01-26T14:04:17.685Z,4.85
2023-01-26T14:06:50.415Z,4.80
2023-01-26T14:09:19.254Z,3.90
2023-01-26T14:11:57.550Z,5.00
2023-01-26T14:14:27.818Z,4.35
2023-01-26T14:16:57.954Z,4.35
2023-01-26T14:19:26.381Z,4.75
2023-01-26T14:21:56.002Z,4.10
2023-01-26T14:24:28.364Z,4.55
2023-01-26T14:26:57.708Z,4.35
2023-01-26T14:29:29.828Z,4.05
2023-01-26T14:31:59.470Z,4.50
2023-01-26T14:34:29.275Z,4.72
2023-01-26T14:37:08.543Z,4.78
2023-01-26T14:39:36.520Z,4.72
2023-01-26T14:42:06.533Z,4.70
2023-01-26T14:44:34.512Z,4.70
2023-01-26T14:47:08.086Z,4.90
2023-01-26T14:49:46.114Z,4.95
2023-01-26T14:52:23.843Z,4.95
2023-01-26T14:54:54.233Z,4.75
2023-01-26T14:57:26.502Z,5.25
2023-01-26T14:59:56.770Z,5.32
2023-01-26T15:02:26.915Z,4.47
2023-01-26T15:05:00.006Z,5.80
2023-01-26T15:07:36.898Z,5.38
2023-01-26T15:10:21.542Z,8.52
2023-01-26T15:12:59.531Z,6.20
2023-01-26T15:15:29.651Z,6.00
2023-01-26T15:18:06.677Z,5.70
2023-01-26T15:21:00.216Z,5.00
2023-01-26T15:23:30.506Z,6.40
2023-01-26T15:26:06.004Z,5.88
2023-01-26T15:28:36.357Z,6.15
2023-01-26T15:31:04.711Z,6.40
2023-01-26T15:33:41.259Z,4.97
2023-01-26T15:36:33.056Z,6.40
2023-01-26T15:39:03.962Z,5.78
2023-01-26T15:41:32.122Z,4.72
2023-01-26T15:44:01.866Z,5.53
2023-01-26T15:46:30.033Z,5.82
2023-01-26T15:48:58.095Z,5.68
2023-01-26T15:51:26.063Z,6.35
2023-01-26T15:53:53.999Z,5.10
2023-01-26T15:56:21.998Z,6.20
2023-01-26T15:58:49.967Z,5.93
2023-01-26T16:01:22.976Z,6.60
2023-01-26T16:03:51.872Z,6.78
2023-01-26T16:06:25.186Z,6.68
2023-01-26T16:08:53.457Z,7.35
2023-01-26T16:11:22.497Z,6.45
2023-01-26T16:14:02.316Z,6.60
2023-01-26T16:16:33.488Z,6.38
2023-01-26T16:19:01.590Z,6.50
2023-01-26T16:21:33.255Z,6.93
2023-01-26T16:24:01.626Z,6.70
2023-01-26T16:26:30.875Z,7.35
2023-01-26T16:28:59.367Z,6.63
2023-01-26T16:31:31.076Z,7.43
2023-01-26T16:34:01.167Z,7.30
2023-01-26T16:36:29.185Z,6.57
2023-01-26T16:38:57.112Z,6.90
2023-01-26T16:41:27.396Z,8.10
2023-01-26T16:43:56.652Z,6.75
2023-01-26T16:46:24.838Z,7.10
2023-01-26T16:48:52.839Z,8.13
2023-01-26T16:51:26.642Z,9.52
2023-01-26T16:53:55.448Z,9.55
2023-01-26T16:56:24.631Z,9.57
2023-01-26T16:58:53.159Z,7.93
2023-01-26T17:01:23.391Z,9.68
2023-01-26T17:03:51.771Z,9.70
2023-01-26T17:06:21.782Z,8.95
2023-01-26T17:08:50.474Z,8.40
2023-01-26T17:11:20.584Z,8.40
2023-01-26T17:13:49.297Z,9.93
2023-01-26T17:16:19.194Z,8.65
2023-01-26T17:18:48.549Z,8.75
2023-01-26T17:21:18.645Z,8.07
2023-01-26T17:23:50.681Z,7.70
2023-01-26T17:26:20.157Z,9.00
2023-01-26T17:28:50.068Z,7.70
2023-01-26T17:31:20.045Z,8.30
2023-01-26T17:33:50.103Z,11.05
2023-01-26T17:36:19.700Z,8.68
2023-01-26T17:38:48.402Z,8.70
2023-01-26T17:41:18.000Z,9.35
2023-01-26T17:43:46.174Z,9.15
2023-01-26T17:46:15.981Z,7.75
2023-01-26T17:48:45.403Z,8.75
2023-01-26T17:51:16.584Z,9.70
2023-01-26T17:53:46.310Z,8.88
2023-01-26T17:56:18.612Z,7.78
2023-01-26T17:58:49.759Z,8.20
2023-01-26T18:01:18.193Z,8.43
2023-01-26T18:03:46.193Z,8.48
2023-01-26T18:06:14.246Z,8.90
2023-01-26T18:08:42.583Z,8.70
2023-01-26T18:11:13.009Z,7.95
2023-01-26T18:13:43.559Z,8.60
2023-01-26T18:16:15.932Z,7.88
2023-01-26T18:18:44.365Z,8.43
2023-01-26T18:21:14.357Z,8.15
2023-01-26T18:23:45.386Z,8.35
2023-01-26T18:26:13.413Z,8.05
2023-01-26T18:28:43.306Z,7.40
2023-01-26T18:31:12.626Z,8.60
2023-01-26T18:33:41.201Z,8.00
2023-01-26T18:36:11.968Z,10.00
2023-01-26T18:38:40.252Z,8.73
2023-01-26T18:41:12.201Z,8.35
2023-01-26T18:43:42.417Z,10.68
2023-01-26T18:46:11.747Z,12.88
2023-01-26T18:48:39.895Z,12.90
2023-01-26T18:51:08.650Z,23.92
2023-01-26T18:53:38.556Z,14.02
2023-01-26T18:56:08.710Z,11.82
2023-01-26T18:58:37.781Z,15.15
2023-01-26T19:01:10.599Z,12.90
2023-01-26T19:03:39.906Z,9.80
2023-01-26T19:06:09.022Z,14.57
2023-01-26T19:08:37.239Z,11.18
2023-01-26T19:11:05.939Z,11.77
2023-01-26T19:13:34.412Z,11.43
2023-01-26T19:16:02.528Z,10.35
2023-01-26T19:18:31.926Z,12.20
2023-01-26T19:21:01.398Z,10.15
2023-01-26T19:23:29.870Z,10.77
2023-01-26T19:25:58.125Z,10.75
2023-01-26T19:28:26.280Z,11.32
2023-01-26T19:31:03.237Z,9.48
2023-01-26T19:33:32.667Z,9.50
2023-01-26T19:36:03.681Z,9.20
2023-01-26T19:38:33.067Z,10.63
2023-01-26T19:41:02.462Z,10.07
2023-01-26T19:43:30.406Z,8.93
2023-01-26T19:45:58.514Z,9.02
2023-01-26T19:48:28.271Z,9.38
2023-01-26T19:51:03.234Z,10.90
2023-01-26T19:53:32.157Z,10.15
2023-01-26T19:56:00.903Z,10.38
2023-01-26T19:58:29.358Z,10.75
2023-01-26T20:01:01.267Z,11.52
2023-01-26T20:03:29.265Z,10.98
2023-01-26T20:05:57.370Z,10.80
2023-01-26T20:08:28.131Z,11.43
2023-01-26T20:11:02.641Z,11.88
2023-01-26T20:13:30.909Z,10.93
2023-01-26T20:15:58.892Z,11.00
2023-01-26T20:18:27.080Z,10.60
2023-01-26T20:20:56.309Z,9.85
2023-01-26T20:23:26.025Z,9.65
2023-01-26T20:26:01.006Z,9.93
2023-01-26T20:28:28.977Z,9.52
2023-01-26T20:30:59.768Z,9.85
2023-01-26T20:33:27.900Z,11.02
2023-01-26T20:35:56.386Z,10.85
2023-01-26T20:38:25.692Z,9.75
2023-01-26T20:40:53.739Z,9.82
2023-01-26T20:43:21.803Z,9.85
2023-01-26T20:45:49.916Z,11.02
2023-01-26T20:48:17.967Z,10.60
2023-01-26T20:50:45.913Z,10.23
2023-01-26T20:53:13.872Z,10.30
2023-01-26T20:55:43.440Z,9.00
2023-01-26T20:58:11.923Z,10.38
2023-01-26T21:00:39.877Z,10.23
2023-01-26T21:03:07.979Z,9.13
2023-01-26T21:05:41.999Z,10.18
2023-01-26T21:08:10.395Z,9.10
2023-01-26T21:10:38.432Z,10.63
2023-01-26T21:13:07.760Z,9.75
2023-01-26T21:15:35.794Z,10.20
2023-01-26T21:18:04.067Z,9.75
2023-01-26T21:20:32.140Z,9.27
2023-01-26T21:23:00.645Z,9.60
2023-01-26T21:25:28.687Z,8.85
2023-01-26T21:27:56.651Z,9.35
2023-01-26T21:30:25.980Z,9.48
2023-01-26T21:32:53.962Z,9.30
2023-01-26T21:35:22.090Z,9.63
2023-01-26T21:37:50.062Z,9.57
2023-01-26T21:40:18.479Z,10.40
2023-01-26T21:42:46.578Z,10.55
2023-01-26T21:45:31.979Z,10.38
2023-01-26T21:48:27.308Z,11.45
2023-01-26T21:51:13.768Z,9.82
2023-01-26T21:53:41.765Z,10.80
2023-01-26T21:56:10.090Z,9.95
2023-01-26T21:58:57.680Z,10.63
2023-01-26T22:01:26.160Z,9.68
2023-01-26T22:03:57.490Z,9.93
2023-01-26T22:06:26.064Z,10.55
2023-01-26T22:08:54.493Z,9.77
2023-01-26T22:11:22.701Z,10.10
2023-01-26T22:13:50.707Z,10.40
2023-01-26T22:16:19.127Z,11.88
2023-01-26T22:18:48.535Z,11.23
2023-01-26T22:21:18.869Z,10.70
2023-01-26T22:23:47.303Z,9.60
2023-01-26T22:26:19.445Z,10.75
2023-01-26T22:28:51.980Z,11.50
2023-01-26T22:31:22.565Z,11.15
2023-01-26T22:33:51.376Z,11.48
2023-01-26T22:36:21.350Z,9.93
2023-01-26T22:38:52.038Z,10.48
2023-01-26T22:41:22.067Z,10.98
2023-01-26T22:43:51.252Z,10.65
2023-01-26T22:46:20.408Z,11.00
2023-01-26T22:48:48.945Z,10.80
2023-01-26T22:51:19.118Z,10.45
2023-01-26T22:53:50.097Z,9.70
2023-01-26T22:56:18.668Z,11.93
2023-01-26T22:58:57.709Z,10.32
2023-01-26T23:01:26.694Z,11.48
2023-01-26T23:03:55.950Z,10.63
2023-01-26T23:06:24.743Z,15.00
2023-01-26T23:08:54.469Z,16.05
2023-01-26T23:11:24.584Z,11.38
2023-01-26T23:13:54.243Z,9.85
2023-01-26T23:16:23.569Z,10.43
2023-01-26T23:18:52.152Z,9.95
2023-01-26T23:21:20.477Z,11.10
2023-01-26T23:23:48.574Z,11.00
2023-01-26T23:26:18.120Z,10.40
2023-01-26T23:28:46.376Z,10.52
2023-01-26T23:31:16.470Z,11.27
2023-01-26T23:33:44.739Z,10.80
2023-01-26T23:36:15.148Z,12.25
2023-01-26T23:38:44.332Z,12.15
2023-01-26T23:41:12.480Z,11.05
2023-01-26T23:43:41.992Z,11.95
2023-01-26T23:46:11.594Z,12.30
2023-01-26T23:48:40.068Z,11.90
2023-01-26T23:51:10.103Z,12.20
2023-01-26T23:53:38.641Z,11.57
2023-01-26T23:56:09.684Z,11.82
2023-01-26T23:58:37.996Z,11.68
